Time;durP1;ratioP1;P1;durP2;ratioP2;P2;SDS_P1;SDS_P2;PMS_P1;PMS_P2;Temp;Humidity;BMP_temperature;BMP_pressure;BME280_temperature;BME280_humidity;BME280_pressure;Samples;Min_cycle;Max_cycle;Signal;HPM_P1;HPM_P2
2021/10/19 00:00:59;;;;;;;;;;;;;;;-144.99;91.14;52423.63;5057559;28;19977;-81
2021/10/19 00:03:25;;;;;;;;;;;;;;;-144.99;91.49;52441.97;5058004;28;20008;-78
2021/10/19 00:05:52;;;;;;;;;;;;;;;-144.99;91.30;52429.75;5045056;28;20004;-78
2021/10/19 00:08:18;;;;;;;;;;;;;;;-144.99;90.90;52444.03;5043495;28;19985;-81
2021/10/19 00:10:45;;;;;;;;;;;;;;;-144.99;90.70;52488.84;5062860;28;19993;-79
2021/10/19 00:13:11;;;;;;;;;;;;;;;-144.99;90.96;52427.72;5063052;28;20457;-75
2021/10/19 00:15:39;;;;;;;;;;;;;;;-144.99;90.91;52419.56;5048739;28;19996;-77
2021/10/19 00:18:05;;;;;;;;;;;;;;;-144.99;90.83;52452.16;5051331;28;20058;-77
2021/10/19 00:20:31;;;;;;;;;;;;;;;-144.99;90.85;52472.56;5044644;28;19987;-77
2021/10/19 00:22:58;;;;;;;;;;;;;;;-144.99;90.75;52444.03;5052559;28;20003;-77
2021/10/19 00:25:24;;;;;;;;;;;;;;;-144.99;90.39;52407.31;5038300;28;19997;-75
2021/10/19 00:27:51;;;;;;;;;;;;;;;-144.99;90.66;52452.16;5051162;28;19981;-77
2021/10/19 00:30:18;;;;;;;;;;;;;;;-144.99;90.34;52446.06;5048605;28;20008;-78
2021/10/19 00:32:46;;;;;;;;;;;;;;;-144.99;90.09;52456.25;5041595;28;20391;-78
2021/10/19 00:35:12;;;;;;;;;;;;;;;-144.99;89.75;52435.88;5044454;28;19989;-79
2021/10/19 00:37:38;;;;;;;;;;;;;;;-144.99;89.74;52484.78;5051645;28;19992;-78
2021/10/19 00:40:05;;;;;;;;;;;;;;;-144.99;89.62;52439.94;5033699;28;19978;-78
2021/10/19 00:42:33;;;;;;;;;;;;;;;-144.99;89.61;52439.94;5041028;28;19981;-78
2021/10/19 00:44:59;;;;;;;;;;;;;;;-144.99;89.62;52452.16;5045640;28;19993;-76
2021/10/19 00:47:25;;;;;;;;;;;;;;;-144.99;90.28;52407.31;5039235;28;19977;-77
2021/10/19 00:49:53;;;;;;;;;;;;;;;-144.99;89.92;52484.78;5031314;28;19981;-80
2021/10/19 00:52:19;;;;;;;;;;;;;;;-144.99;89.95;52464.41;5039272;28;20008;-78
2021/10/19 00:54:46;;;;;;;;;;;;;;;-144.99;90.08;52464.41;5034449;28;20001;-78
2021/10/19 00:57:13;;;;;;;;;;;;;;;-144.99;89.90;52456.25;5046517;28;19977;-77
2021/10/19 00:59:42;;;;;;;;;;;;;;;-144.99;89.76;52407.31;5044286;28;19982;-78
2021/10/19 01:02:09;;;;;;;;;;;;;;;-144.99;89.45;52419.56;5049215;28;19977;-77
2021/10/19 01:04:35;;;;;;;;;;;;;;;-144.99;89.47;52464.41;5052983;28;20004;-75
2021/10/19 01:07:03;;;;;;;;;;;;;;;-144.99;89.44;52425.66;5050004;28;19981;-77
2021/10/19 01:09:30;;;;;;;;;;;;;;;-144.99;89.35;52448.09;5050569;28;19985;-78
2021/10/19 01:11:56;;;;;;;;;;;;;;;-144.99;89.37;52480.72;5041660;28;19993;-79
2021/10/19 01:14:22;;;;;;;;;;;;;;;-144.99;89.34;52464.41;5042595;28;19993;-79
2021/10/19 01:16:49;;;;;;;;;;;;;;;-144.99;89.21;52448.09;5055316;28;20110;-76
2021/10/19 01:19:20;;;;;;;;;;;;;;;-144.99;89.37;52472.56;5034471;28;20451;-78
2021/10/19 01:21:50;;;;;;;;;;;;;;;-144.99;89.30;52472.56;5037122;28;20115;-78
2021/10/19 01:24:16;;;;;;;;;;;;;;;-144.99;89.44;52435.88;5050000;28;20537;-80
2021/10/19 01:26:43;;;;;;;;;;;;;;;-144.99;89.40;52439.94;5037488;28;19985;-78
2021/10/19 01:29:10;;;;;;;;;;;;;;;-144.99;89.60;52468.47;5037625;28;19985;-78
2021/10/19 01:31:37;;;;;;;;;;;;;;;-144.99;89.48;52444.03;5050756;28;20004;-80
2021/10/19 01:34:03;;;;;;;;;;;;;;;-144.99;89.98;52452.16;5059000;28;19988;-77
2021/10/19 01:36:29;;;;;;;;;;;;;;;-144.99;89.93;52444.03;5059064;28;20007;-77
2021/10/19 01:38:57;;;;;;;;;;;;;;;-144.99;89.93;52439.94;5043017;28;20444;-80
2021/10/19 01:41:23;;;;;;;;;;;;;;;-144.99;89.81;52456.25;5043938;28;19982;-79
2021/10/19 01:43:50;;;;;;;;;;;;;;;-144.99;90.16;52448.09;5038917;28;20420;-79
2021/10/19 01:46:16;;;;;;;;;;;;;;;-144.99;89.64;52492.94;5055852;28;20050;-79
2021/10/19 01:48:43;;;;;;;;;;;;;;;-144.99;89.72;52417.53;5037638;28;20201;-79
2021/10/19 01:51:10;;;;;;;;;;;;;;;-144.99;89.69;52427.72;5044320;28;20008;-79
2021/10/19 01:53:36;;;;;;;;;;;;;;;-144.99;89.88;52423.63;5033289;28;19984;-78
2021/10/19 01:56:04;;;;;;;;;;;;;;;-144.99;89.77;52429.75;5047783;28;19997;-79
2021/10/19 01:58:30;;;;;;;;;;;;;;;-144.99;89.63;52427.72;5041679;28;19985;-79
2021/10/19 02:00:57;;;;;;;;;;;;;;;-144.99;89.60;52456.25;5045484;28;20044;-79
2021/10/19 02:03:24;;;;;;;;;;;;;;;-144.99;89.63;52444.03;5056260;28;20635;-79
2021/10/19 02:05:50;;;;;;;;;;;;;;;-144.99;89.84;52427.72;5047814;28;20096;-80
2021/10/19 02:08:17;;;;;;;;;;;;;;;-144.99;89.71;52448.09;5035569;28;19982;-80
2021/10/19 02:10:43;;;;;;;;;;;;;;;-144.99;89.73;52431.78;5041934;28;19973;-79
2021/10/19 02:13:11;;;;;;;;;;;;;;;-144.99;90.09;52501.09;5047532;28;20095;-82
2021/10/19 02:15:37;;;;;;;;;;;;;;;-144.99;90.20;52429.75;5063782;28;20008;-80
2021/10/19 02:18:04;;;;;;;;;;;;;;;-144.99;90.26;52431.78;5053667;28;19977;-80
2021/10/19 02:20:30;;;;;;;;;;;;;;;-144.99;90.01;52446.06;5049449;28;20008;-80
2021/10/19 02:22:57;;;;;;;;;;;;;;;-144.99;90.26;52444.03;5046288;28;19986;-79
2021/10/19 02:25:23;;;;;;;;;;;;;;;-144.99;90.04;52456.25;5051369;28;20004;-80
2021/10/19 02:27:49;;;;;;;;;;;;;;;-144.99;89.83;52439.94;5054843;28;19985;-79
2021/10/19 02:30:18;;;;;;;;;;;;;;;-144.99;89.71;52431.78;5040702;28;20213;-80
2021/10/19 02:32:44;;;;;;;;;;;;;;;-144.99;89.71;52480.72;5045780;28;20004;-80
2021/10/19 02:35:11;;;;;;;;;;;;;;;-144.99;90.21;52452.16;5058005;28;20000;-80
2021/10/19 02:37:37;;;;;;;;;;;;;;;-144.99;90.23;52448.09;5044018;28;20465;-79
2021/10/19 02:40:04;;;;;;;;;;;;;;;-144.99;90.14;52452.16;5055666;28;19982;-79
2021/10/19 02:42:31;;;;;;;;;;;;;;;-144.99;90.05;52413.44;5053492;28;19986;-78
2021/10/19 02:44:59;;;;;;;;;;;;;;;-144.99;89.76;52425.66;5053121;28;20494;-78
2021/10/19 02:47:27;;;;;;;;;;;;;;;-144.99;89.87;52454.22;5047730;28;20035;-77
2021/10/19 02:49:53;;;;;;;;;;;;;;;-144.99;90.02;52456.25;5039796;28;20056;-80
2021/10/19 02:52:19;;;;;;;;;;;;;;;-144.99;90.05;52439.94;5057789;28;20005;-79
2021/10/19 02:54:46;;;;;;;;;;;;;;;-144.99;89.77;52441.97;5038579;28;19998;-80
2021/10/19 02:57:12;;;;;;;;;;;;;;;-144.99;89.99;52460.31;5046163;28;19981;-80
2021/10/19 02:59:38;;;;;;;;;;;;;;;-144.99;89.84;52464.41;5035038;28;19989;-80
2021/10/19 03:02:05;;;;;;;;;;;;;;;-144.99;90.28;52464.41;5049262;28;20549;-80
2021/10/19 03:04:32;;;;;;;;;;;;;;;-144.99;90.08;52454.22;5049380;28;20005;-79
2021/10/19 03:06:59;;;;;;;;;;;;;;;-144.99;90.07;52415.47;5039930;28;19988;-78
2021/10/19 03:09:25;;;;;;;;;;;;;;;-144.99;89.99;52456.25;5051184;28;19981;-79
2021/10/19 03:11:52;;;;;;;;;;;;;;;-144.99;90.11;52444.03;5046015;28;19993;-79
2021/10/19 03:14:18;;;;;;;;;;;;;;;-144.99;90.01;52431.78;5045114;28;20007;-78
2021/10/19 03:16:44;;;;;;;;;;;;;;;-144.99;90.12;52435.88;5058252;28;20418;-78
2021/10/19 03:19:10;;;;;;;;;;;;;;;-144.99;90.09;52444.03;5036395;28;19988;-78
2021/10/19 03:21:38;;;;;;;;;;;;;;;-144.99;90.25;52470.50;5060193;28;19977;-77
2021/10/19 03:24:05;;;;;;;;;;;;;;;-144.99;90.87;52448.09;5048547;28;20336;-79
2021/10/19 03:26:31;;;;;;;;;;;;;;;-144.99;90.52;52454.22;5032306;28;20363;-76
2021/10/19 03:28:57;;;;;;;;;;;;;;;-144.99;90.48;52437.91;5032407;28;20007;-79
2021/10/19 03:31:24;;;;;;;;;;;;;;;-144.99;90.67;52433.81;5032783;28;20143;-76
2021/10/19 03:33:50;;;;;;;;;;;;;;;-144.99;91.38;52441.97;5051410;28;19981;-75
2021/10/19 03:36:17;;;;;;;;;;;;;;;-144.99;91.01;52452.16;5046249;28;20004;-76
2021/10/19 03:38:44;;;;;;;;;;;;;;;-144.99;90.77;52433.81;5048733;28;20469;-76
2021/10/19 03:41:11;;;;;;;;;;;;;;;-144.99;90.54;52415.47;5033607;28;20304;-75
2021/10/19 03:43:37;;;;;;;;;;;;;;;-144.99;90.77;52431.78;5039069;28;20236;-75
2021/10/19 03:46:04;;;;;;;;;;;;;;;-144.99;90.82;52423.63;5048812;28;19996;-76
2021/10/19 03:48:30;;;;;;;;;;;;;;;-144.99;90.71;52460.31;5050850;28;19993;-78
2021/10/19 03:50:56;;;;;;;;;;;;;;;-144.99;91.14;52476.63;5043109;28;19995;-79
2021/10/19 03:53:23;;;;;;;;;;;;;;;-144.99;91.06;52462.34;5036404;28;19997;-79
2021/10/19 03:55:51;;;;;;;;;;;;;;;-144.99;91.04;52444.03;5040459;28;20095;-78
2021/10/19 03:58:17;;;;;;;;;;;;;;;-144.99;91.23;52476.63;5050659;28;20355;-79
2021/10/19 04:00:44;;;;;;;;;;;;;;;-144.99;91.38;52441.97;5052432;28;20420;-78
2021/10/19 04:03:12;;;;;;;;;;;;;;;-144.99;91.37;52456.25;5052024;28;19989;-78
2021/10/19 04:05:39;;;;;;;;;;;;;;;-144.99;90.87;52450.13;5039054;28;20004;-78
2021/10/19 04:08:05;;;;;;;;;;;;;;;-144.99;90.91;52452.16;5032409;28;19989;-78
2021/10/19 04:10:31;;;;;;;;;;;;;;;-144.99;90.95;52439.94;5037104;28;19975;-79
2021/10/19 04:12:59;;;;;;;;;;;;;;;-144.99;91.13;52458.28;5059226;28;20490;-80
2021/10/19 04:15:26;;;;;;;;;;;;;;;-144.99;91.07;52435.88;5062371;28;20039;-85
2021/10/19 04:17:52;;;;;;;;;;;;;;;-144.99;91.37;52433.81;5073434;28;19977;-70
2021/10/19 04:20:18;;;;;;;;;;;;;;;-144.99;91.04;52460.31;5062373;28;19913;-78
2021/10/19 04:22:45;;;;;;;;;;;;;;;-144.99;91.30;52456.25;5054819;28;19924;-79
2021/10/19 04:25:11;;;;;;;;;;;;;;;-144.99;91.81;52407.31;5045251;28;20001;-81
2021/10/19 04:27:40;;;;;;;;;;;;;;;-144.99;92.06;52419.56;5053927;28;19981;-79
2021/10/19 04:30:08;;;;;;;;;;;;;;;-144.99;92.21;52382.88;5040304;28;19982;-79
2021/10/19 04:32:34;;;;;;;;;;;;;;;-144.99;91.90;52476.63;5044986;28;20033;-79
2021/10/19 04:35:01;;;;;;;;;;;;;;;-144.99;91.65;52435.88;5040842;28;19993;-79
2021/10/19 04:37:27;;;;;;;;;;;;;;;-144.99;91.55;52456.25;5044522;28;19981;-79
2021/10/19 04:39:53;;;;;;;;;;;;;;;-144.99;91.67;52448.09;5046177;28;20516;-77
2021/10/19 04:42:20;;;;;;;;;;;;;;;-144.99;91.89;52439.94;5041034;28;19981;-81
2021/10/19 04:44:48;;;;;;;;;;;;;;;-144.99;91.67;52452.16;5052705;28;20376;-78
2021/10/19 04:47:16;;;;;;;;;;;;;;;-144.99;91.85;52464.41;5066693;28;20331;-79
2021/10/19 04:49:42;;;;;;;;;;;;;;;-144.99;91.75;52439.94;5058716;28;19983;-79
2021/10/19 04:52:08;;;;;;;;;;;;;;;-144.99;91.27;52435.88;5052597;28;20207;-79
2021/10/19 04:54:35;;;;;;;;;;;;;;;-144.99;91.35;52411.41;5052281;28;19993;-79
2021/10/19 04:57:01;;;;;;;;;;;;;;;-144.99;91.64;52427.72;5046540;28;20084;-78
2021/10/19 04:59:27;;;;;;;;;;;;;;;-144.99;91.81;52472.56;5046620;28;19996;-77
2021/10/19 05:01:54;;;;;;;;;;;;;;;-144.99;91.54;52444.03;5048129;28;19985;-74
2021/10/19 05:04:21;;;;;;;;;;;;;;;-144.99;92.02;52407.31;5034843;28;19998;-74
2021/10/19 05:06:47;;;;;;;;;;;;;;;-144.99;92.12;52435.88;5030529;28;19985;-75
2021/10/19 05:09:14;;;;;;;;;;;;;;;-144.99;91.59;52444.03;5046504;28;19986;-74
2021/10/19 05:11:40;;;;;;;;;;;;;;;-144.99;91.71;52444.03;5044531;28;19978;-73
2021/10/19 05:14:06;;;;;;;;;;;;;;;-144.99;91.56;52448.09;5046472;28;19996;-72
2021/10/19 05:16:33;;;;;;;;;;;;;;;-144.99;92.00;52452.16;5057515;28;20379;-72
2021/10/19 05:18:59;;;;;;;;;;;;;;;-144.99;91.96;52415.47;5036147;28;19978;-72
2021/10/19 05:21:27;;;;;;;;;;;;;;;-144.99;91.81;52431.78;3989381;28;10001281;-73
2021/10/19 05:23:53;;;;;;;;;;;;;;;-144.99;91.37;52419.56;5045728;28;19981;-72
2021/10/19 05:26:19;;;;;;;;;;;;;;;-144.99;91.20;52460.31;5044943;28;20024;-73
2021/10/19 05:28:46;;;;;;;;;;;;;;;-144.99;91.03;52435.88;5027584;28;20066;-73
2021/10/19 05:31:12;;;;;;;;;;;;;;;-144.99;91.04;52431.78;5028452;28;19985;-74
2021/10/19 05:33:38;;;;;;;;;;;;;;;-144.99;91.02;52484.78;5027679;28;20001;-72
2021/10/19 05:36:05;;;;;;;;;;;;;;;-144.99;91.31;52476.63;5033332;28;20016;-74
2021/10/19 05:38:33;;;;;;;;;;;;;;;-144.99;90.74;52448.09;5027780;28;20277;-72
2021/10/19 05:40:59;;;;;;;;;;;;;;;-144.99;90.84;52419.56;5041642;28;20035;-77
2021/10/19 05:43:26;;;;;;;;;;;;;;;-144.99;90.97;52423.63;5041864;28;19981;-74
2021/10/19 05:45:52;;;;;;;;;;;;;;;-144.99;91.36;52439.94;5045995;28;19993;-75
2021/10/19 05:48:19;;;;;;;;;;;;;;;-144.99;91.26;52427.72;5042826;28;19999;-78
2021/10/19 05:50:45;;;;;;;;;;;;;;;-144.99;91.65;52419.56;5047068;28;20373;-75
2021/10/19 05:53:11;;;;;;;;;;;;;;;-144.99;91.45;52452.16;5026755;28;20722;-76
2021/10/19 05:55:39;;;;;;;;;;;;;;;-144.99;91.32;52448.09;5027667;28;20002;-75
2021/10/19 05:58:05;;;;;;;;;;;;;;;-144.99;91.53;52433.81;5047255;28;19981;-75
2021/10/19 06:00:32;;;;;;;;;;;;;;;-144.99;91.56;52441.97;5039002;28;19981;-78
2021/10/19 06:02:59;;;;;;;;;;;;;;;-144.99;92.03;52456.25;5031026;28;20032;-75
2021/10/19 06:05:25;;;;;;;;;;;;;;;-144.99;92.18;52476.63;5027216;28;20002;-76
2021/10/19 06:07:51;;;;;;;;;;;;;;;-144.99;91.80;52409.38;5043931;28;20095;-75
2021/10/19 06:10:21;;;;;;;;;;;;;;;-144.99;91.87;52413.44;5039092;28;19981;-75
2021/10/19 06:12:48;;;;;;;;;;;;;;;-144.99;91.76;52429.75;5036726;28;20044;-75
2021/10/19 06:15:16;;;;;;;;;;;;;;;-144.99;92.05;52423.63;5050206;28;19997;-75
2021/10/19 06:17:42;;;;;;;;;;;;;;;-144.99;91.86;52423.63;5049425;28;19986;-77
2021/10/19 06:20:09;;;;;;;;;;;;;;;-144.99;91.73;52456.25;5036907;28;19975;-76
2021/10/19 06:22:35;;;;;;;;;;;;;;;-144.99;92.13;52415.47;5041650;28;20437;-78
2021/10/19 06:25:01;;;;;;;;;;;;;;;-144.99;91.97;52456.25;5070496;28;20004;-80
2021/10/19 06:27:28;;;;;;;;;;;;;;;-144.99;91.60;52391.03;5054724;28;20307;-75
2021/10/19 06:29:55;;;;;;;;;;;;;;;-144.99;91.75;52460.31;5039365;28;19992;-76
2021/10/19 06:32:22;;;;;;;;;;;;;;;-144.99;91.58;52448.09;5044143;28;19982;-74
2021/10/19 06:34:48;;;;;;;;;;;;;;;-144.99;91.65;52403.25;5035594;28;19999;-76
2021/10/19 06:37:14;;;;;;;;;;;;;;;-144.99;91.77;52452.16;5027671;28;19992;-75
2021/10/19 06:39:41;;;;;;;;;;;;;;;-144.99;91.83;52415.47;5040592;28;19985;-78
2021/10/19 06:42:07;;;;;;;;;;;;;;;-144.99;91.51;52407.31;5036821;28;19981;-78
2021/10/19 06:44:34;;;;;;;;;;;;;;;-144.99;91.84;52399.19;5047253;28;20001;-76
2021/10/19 06:47:01;;;;;;;;;;;;;;;-144.99;91.67;52378.78;5044090;28;19977;-74
2021/10/19 06:49:28;;;;;;;;;;;;;;;-144.99;91.70;52423.63;5037657;28;19977;-75
2021/10/19 06:51:54;;;;;;;;;;;;;;;-144.99;91.86;52444.03;5030137;28;19981;-77
2021/10/19 06:54:20;;;;;;;;;;;;;;;-144.99;92.15;52407.31;5029144;28;20330;-76
2021/10/19 06:56:47;;;;;;;;;;;;;;;-144.99;91.75;52403.25;5044556;28;19982;-75
2021/10/19 06:59:13;;;;;;;;;;;;;;;-144.99;91.85;52399.19;5030486;28;20364;-79
2021/10/19 07:01:39;;;;;;;;;;;;;;;-144.99;91.94;52460.31;5039985;28;19981;-76
2021/10/19 07:04:07;;;;;;;;;;;;;;;-144.99;91.71;52476.63;5059164;28;19981;-76
2021/10/19 07:06:34;;;;;;;;;;;;;;;-144.99;92.02;52448.09;5029577;28;20064;-76
2021/10/19 07:09:00;;;;;;;;;;;;;;;-144.99;91.69;52448.09;5044084;28;20305;-78
2021/10/19 07:11:27;;;;;;;;;;;;;;;-144.99;91.75;52439.94;5044583;28;20064;-76
2021/10/19 07:13:53;;;;;;;;;;;;;;;-144.99;91.92;52419.56;5044206;28;20491;-77
2021/10/19 07:16:20;;;;;;;;;;;;;;;-144.99;92.12;52423.63;5053743;28;19977;-78
2021/10/19 07:18:46;;;;;;;;;;;;;;;-144.99;92.06;52435.88;5039983;28;19967;-77
2021/10/19 07:21:16;;;;;;;;;;;;;;;-144.99;91.81;52431.78;5055807;28;19997;-78
2021/10/19 07:23:43;;;;;;;;;;;;;;;-144.99;91.46;52413.44;5049106;28;20474;-77
2021/10/19 07:26:09;;;;;;;;;;;;;;;-144.99;91.69;52407.31;5048415;28;19998;-74
2021/10/19 07:28:35;;;;;;;;;;;;;;;-144.99;91.99;52407.31;5039224;28;20477;-76
2021/10/19 07:31:02;;;;;;;;;;;;;;;-144.99;91.79;52423.63;5029094;28;20335;-75
2021/10/19 07:33:28;;;;;;;;;;;;;;;-144.99;91.26;52429.75;5041693;28;19997;-77
2021/10/19 07:35:54;;;;;;;;;;;;;;;-144.99;91.39;52444.03;5034623;28;19997;-79
2021/10/19 07:38:22;;;;;;;;;;;;;;;-144.99;91.14;52382.88;5040444;28;19977;-76
2021/10/19 07:40:48;;;;;;;;;;;;;;;-144.99;90.79;52395.09;5061016;28;19981;-75
2021/10/19 07:43:15;;;;;;;;;;;;;;;-144.99;90.61;52407.31;5037425;28;19974;-78
2021/10/19 07:45:42;;;;;;;;;;;;;;;-144.99;90.62;52415.47;5048976;28;20173;-78
2021/10/19 07:48:08;;;;;;;;;;;;;;;-144.99;90.75;52391.03;5055523;28;19977;-78
2021/10/19 07:50:35;;;;;;;;;;;;;;;-144.99;90.44;52403.25;5046328;28;20046;-77
2021/10/19 07:53:01;;;;;;;;;;;;;;;-144.99;90.58;52382.88;5056231;28;19977;-77
2021/10/19 07:55:33;;;;;;;;;;;;;;;-144.99;90.25;52391.03;5029032;28;20016;-78
2021/10/19 07:57:59;;;;;;;;;;;;;;;-144.99;89.77;52444.03;5028537;28;20091;-74
2021/10/19 08:00:26;;;;;;;;;;;;;;;-144.99;89.77;52415.47;5028822;28;20263;-76
2021/10/19 08:02:53;;;;;;;;;;;;;;;-144.99;90.04;52395.09;5044473;28;19985;-75
2021/10/19 08:05:19;;;;;;;;;;;;;;;-144.99;89.71;52431.78;5048518;28;20487;-75
2021/10/19 08:07:47;;;;;;;;;;;;;;;-144.99;90.04;52407.31;5048715;28;19981;-74
2021/10/19 08:10:14;;;;;;;;;;;;;;;-144.99;89.60;52407.31;5037941;28;20266;-78
2021/10/19 08:12:42;;;;;;;;;;;;;;;-144.99;89.71;52415.47;5033449;28;20421;-74
2021/10/19 08:15:08;;;;;;;;;;;;;;;-144.99;89.96;52382.88;5042693;28;19996;-76
2021/10/19 08:17:35;;;;;;;;;;;;;;;-144.99;89.93;52448.09;5055753;28;19978;-78
2021/10/19 08:20:01;;;;;;;;;;;;;;;-144.99;90.28;52391.03;5059851;28;20080;-76
2021/10/19 08:22:28;;;;;;;;;;;;;;;-144.99;89.93;52427.72;5049272;28;20007;-77
2021/10/19 08:24:54;;;;;;;;;;;;;;;-144.99;90.42;52384.91;5048724;28;20110;-75
2021/10/19 08:27:21;;;;;;;;;;;;;;;-144.99;90.28;52374.72;5062719;28;19969;-75
2021/10/19 08:29:48;;;;;;;;;;;;;;;-144.99;90.26;52415.47;5054865;28;20056;-75
2021/10/19 08:32:15;;;;;;;;;;;;;;;-144.99;90.62;52403.25;5048033;28;19985;-75
2021/10/19 08:34:41;;;;;;;;;;;;;;;-144.99;90.61;52435.88;5061207;28;20001;-73
2021/10/19 08:37:07;;;;;;;;;;;;;;;-144.99;90.87;52415.47;5034725;28;20455;-74
2021/10/19 08:39:33;;;;;;;;;;;;;;;-144.99;90.98;52370.63;5047826;28;19981;-75
2021/10/19 08:42:00;;;;;;;;;;;;;;;-144.99;90.86;52407.31;5029360;28;19982;-75
2021/10/19 08:44:27;;;;;;;;;;;;;;;-144.99;90.94;52401.22;5045612;28;19993;-75
2021/10/19 08:46:55;;;;;;;;;;;;;;;-144.99;90.74;52370.63;5050804;28;19985;-77
2021/10/19 08:49:21;;;;;;;;;;;;;;;-144.99;90.59;52407.31;5028119;28;20003;-77
2021/10/19 08:51:48;;;;;;;;;;;;;;;-144.99;90.91;52403.25;5027387;28;19993;-74
2021/10/19 08:54:14;;;;;;;;;;;;;;;-144.99;90.76;52374.72;5027080;28;20016;-77
2021/10/19 08:56:41;;;;;;;;;;;;;;;-144.99;90.20;52419.56;5028282;28;19978;-78
2021/10/19 08:59:08;;;;;;;;;;;;;;;-144.99;89.86;52358.41;5027827;28;20034;-75
2021/10/19 09:01:35;;;;;;;;;;;;;;;-144.99;89.78;52407.31;5040574;28;20655;-75
2021/10/19 09:04:05;;;;;;;;;;;;;;;-144.99;89.77;52393.06;5038427;28;19973;-76
2021/10/19 09:06:32;;;;;;;;;;;;;;;-144.99;89.72;52399.19;5028114;28;20270;-77
2021/10/19 09:09:03;;;;;;;;;;;;;;;-144.99;90.35;52368.59;5028166;28;19982;-76
2021/10/19 09:11:36;;;;;;;;;;;;;;;-144.99;90.22;52433.81;5032820;28;19973;-75
2021/10/19 09:14:03;;;;;;;;;;;;;;;-144.99;89.97;52386.94;5043384;28;19993;-75
2021/10/19 09:16:36;;;;;;;;;;;;;;;-144.99;90.37;52395.09;5052666;28;20439;-76
2021/10/19 09:19:04;;;;;;;;;;;;;;;-144.99;89.92;52423.63;5027784;28;20014;-77
2021/10/19 09:21:31;;;;;;;;;;;;;;;-144.99;90.21;52376.75;5038253;28;20083;-79
2021/10/19 09:24:15;;;;;;;;;;;;;;;-144.99;90.58;52391.03;5043212;28;20143;-79
2021/10/19 09:26:49;;;;;;;;;;;;;;;-144.99;90.42;52421.59;5028333;28;20012;-75
2021/10/19 09:29:15;;;;;;;;;;;;;;;-144.99;90.92;52391.03;5027947;28;20020;-79
2021/10/19 09:31:41;;;;;;;;;;;;;;;-144.99;90.44;52378.78;5027216;28;20388;-76
2021/10/19 09:34:12;;;;;;;;;;;;;;;-144.99;90.62;52382.88;5044096;28;19997;-77
2021/10/19 09:36:39;;;;;;;;;;;;;;;-144.99;90.43;52376.75;5058375;28;19981;-75
2021/10/19 09:39:05;;;;;;;;;;;;;;;-144.99;91.11;52395.09;5048585;28;19992;-76
2021/10/19 09:41:41;;;;;;;;;;;;;;;-144.99;90.91;52382.88;5042094;28;19985;-79
2021/10/19 09:44:09;;;;;;;;;;;;;;;-144.99;91.40;52395.09;5040160;28;20423;-75
2021/10/19 09:46:36;;;;;;;;;;;;;;;-144.99;91.03;52444.03;5051788;28;19981;-75
2021/10/19 09:49:03;;;;;;;;;;;;;;;-144.99;91.29;52378.78;5039518;28;20108;-76
2021/10/19 09:51:34;;;;;;;;;;;;;;;-144.99;90.67;52374.72;5048094;28;19987;-77
2021/10/19 09:54:00;;;;;;;;;;;;;;;-144.99;89.92;52378.78;5031405;28;19997;-76
2021/10/19 09:56:27;;;;;;;;;;;;;;;-144.99;90.20;52366.56;5034990;28;19982;-76
2021/10/19 09:58:53;;;;;;;;;;;;;;;-144.99;90.25;52407.31;5030705;28;19985;-76
2021/10/19 10:01:19;;;;;;;;;;;;;;;-144.99;90.34;52425.66;5049855;28;19977;-76
2021/10/19 10:03:50;;;;;;;;;;;;;;;-144.99;89.57;52382.88;5052630;28;19988;-77
2021/10/19 10:06:17;;;;;;;;;;;;;;;-144.99;89.17;52327.84;5027571;28;20001;-74
2021/10/19 10:08:45;;;;;;;;;;;;;;;-144.99;89.02;52374.72;5028847;28;19992;-78
2021/10/19 10:11:13;;;;;;;;;;;;;;;-144.99;89.23;52368.59;5063527;28;20073;-77
2021/10/19 10:13:39;;;;;;;;;;;;;;;-144.99;88.71;52393.06;5049502;28;20522;-77
2021/10/19 10:16:09;;;;;;;;;;;;;;;-144.99;88.93;52386.94;5053545;28;20000;-78
2021/10/19 10:18:36;;;;;;;;;;;;;;;-144.99;89.13;52362.50;5037031;28;19985;-76
2021/10/19 10:21:12;;;;;;;;;;;;;;;-144.99;89.88;52372.69;5037356;28;20095;-74
2021/10/19 10:23:40;;;;;;;;;;;;;;;-144.99;89.70;52346.19;5031131;28;20437;-76
2021/10/19 10:26:10;;;;;;;;;;;;;;;-144.99;89.54;52393.06;5032226;28;20077;-75
2021/10/19 10:28:36;;;;;;;;;;;;;;;-144.99;90.15;52374.72;5051171;28;19985;-76
2021/10/19 10:31:05;;;;;;;;;;;;;;;-144.99;89.51;52391.03;5045827;28;19977;-81
2021/10/19 10:33:32;;;;;;;;;;;;;;;-144.99;89.73;52395.09;5038580;28;19971;-80
2021/10/19 10:36:00;;;;;;;;;;;;;;;-144.99;90.16;52360.44;5062328;28;19996;-79
2021/10/19 10:38:27;;;;;;;;;;;;;;;-144.99;90.72;52366.56;5039017;28;19981;-77
2021/10/19 10:40:57;;;;;;;;;;;;;;;-144.99;90.55;52391.03;5049871;28;19985;-76
2021/10/19 10:43:26;;;;;;;;;;;;;;;-144.99;90.74;52366.56;5038978;28;20023;-79
2021/10/19 10:46:02;;;;;;;;;;;;;;;-144.99;91.00;52407.31;5045569;28;19993;-76
2021/10/19 10:48:29;;;;;;;;;;;;;;;-144.99;91.39;52358.41;5034006;28;20031;-79
2021/10/19 10:50:56;;;;;;;;;;;;;;;-144.99;91.84;52403.25;5042724;28;19985;-77
2021/10/19 10:53:22;;;;;;;;;;;;;;;-144.99;92.42;52370.63;5045847;28;19977;-77
2021/10/19 10:55:51;;;;;;;;;;;;;;;-144.99;92.31;52358.41;5029560;28;20115;-76
2021/10/19 10:58:22;;;;;;;;;;;;;;;-144.99;92.75;52358.41;5030062;28;19991;-76
2021/10/19 11:00:50;;;;;;;;;;;;;;;-144.99;92.44;52395.09;5042268;28;19962;-76
2021/10/19 11:03:18;;;;;;;;;;;;;;;-144.99;92.94;52399.19;5059952;28;19992;-76
2021/10/19 11:05:51;;;;;;;;;;;;;;;-144.99;92.69;52386.94;5051408;28;20187;-75
2021/10/19 11:08:25;;;;;;;;;;;;;;;-144.99;93.10;52395.09;5043682;28;19982;-78
2021/10/19 11:10:52;;;;;;;;;;;;;;;-144.99;93.81;52393.06;5036578;28;19984;-76
2021/10/19 11:13:19;;;;;;;;;;;;;;;-144.99;93.56;52342.09;5045242;28;19934;-75
2021/10/19 11:15:52;;;;;;;;;;;;;;;-144.99;93.59;52419.56;5053075;28;20390;-75
2021/10/19 11:18:20;;;;;;;;;;;;;;;-144.99;93.24;52372.69;5056339;28;19992;-78
2021/10/19 11:20:52;;;;;;;;;;;;;;;-144.99;93.03;52370.63;5049611;28;20481;-75
2021/10/19 11:23:18;;;;;;;;;;;;;;;-144.99;92.91;52368.59;5051060;28;19985;-76
2021/10/19 11:25:44;;;;;;;;;;;;;;;-144.99;93.41;52395.09;5038132;28;20032;-76
2021/10/19 11:28:12;;;;;;;;;;;;;;;-144.99;93.21;52386.94;5039359;28;19982;-75
2021/10/19 11:30:38;;;;;;;;;;;;;;;-144.99;93.34;52378.78;5045167;28;19985;-79
2021/10/19 11:33:07;;;;;;;;;;;;;;;-144.99;93.69;52427.72;5063087;28;20052;-74
2021/10/19 11:35:33;;;;;;;;;;;;;;;-144.99;93.84;52388.97;5053073;28;20009;-75
2021/10/19 11:38:00;;;;;;;;;;;;;;;-144.99;94.08;52364.53;5039940;28;19992;-75
2021/10/19 11:40:27;;;;;;;;;;;;;;;-144.99;94.34;52386.94;5052475;28;19982;-75
2021/10/19 11:42:54;;;;;;;;;;;;;;;-144.99;94.34;52407.31;5045027;28;19996;-79
2021/10/19 11:45:22;;;;;;;;;;;;;;;-144.99;94.51;52368.59;5050512;28;20165;-75
2021/10/19 11:47:49;;;;;;;;;;;;;;;-144.99;94.51;52391.03;5057130;28;20044;-76
2021/10/19 11:50:19;;;;;;;;;;;;;;;-144.99;93.88;52350.25;5041097;28;20306;-76
2021/10/19 11:52:46;;;;;;;;;;;;;;;-144.99;93.82;52358.41;5053499;28;20294;-76
2021/10/19 11:55:13;;;;;;;;;;;;;;;-144.99;94.10;52356.38;5054497;28;20011;-78
2021/10/19 11:57:39;;;;;;;;;;;;;;;-144.99;94.32;52346.19;5044873;28;19987;-79
2021/10/19 12:00:08;;;;;;;;;;;;;;;-144.99;94.45;52358.41;5057863;28;19993;-76
2021/10/19 12:02:34;;;;;;;;;;;;;;;-144.99;94.70;52391.03;5053620;28;19975;-76
2021/10/19 12:05:05;;;;;;;;;;;;;;;-144.99;94.75;52384.91;5038243;28;20021;-76
2021/10/19 12:07:32;;;;;;;;;;;;;;;-144.99;94.16;52370.63;5033864;28;19989;-76
2021/10/19 12:10:07;;;;;;;;;;;;;;;-144.99;94.87;52374.72;5028723;28;20538;-74
2021/10/19 12:12:34;;;;;;;;;;;;;;;-144.99;95.13;52386.94;5050397;28;19993;-74
2021/10/19 12:15:00;;;;;;;;;;;;;;;-144.99;95.69;52382.88;5041794;28;20013;-77
2021/10/19 12:17:27;;;;;;;;;;;;;;;-144.99;95.73;52366.56;5052344;28;20266;-73
2021/10/19 12:19:53;;;;;;;;;;;;;;;-144.99;95.54;52384.91;5037711;28;19981;-75
2021/10/19 12:22:20;;;;;;;;;;;;;;;-144.99;95.63;52354.34;5041698;28;20439;-76
2021/10/19 12:24:48;;;;;;;;;;;;;;;-144.99;95.58;52407.31;5048036;28;19997;-74